createdAt,value
2019-05-25T00:01:45.191Z,73.40
2019-05-25T00:04:13.898Z,73.40
2019-05-25T00:06:42.489Z,73.60
2019-05-25T00:09:11.235Z,73.20
2019-05-25T00:11:39.853Z,73.30
2019-05-25T00:14:08.425Z,73.20
2019-05-25T00:16:37.054Z,72.90
2019-05-25T00:19:05.945Z,72.60
2019-05-25T00:21:34.461Z,72.40
2019-05-25T00:24:11.780Z,71.90
2019-05-25T00:26:33.409Z,72.10
2019-05-25T00:29:02.010Z,72.40
2019-05-25T00:31:30.571Z,72.40
2019-05-25T00:33:59.259Z,71.50
2019-05-25T00:36:27.903Z,70.80
2019-05-25T00:38:56.466Z,70.60
2019-05-25T00:41:25.180Z,70.40
2019-05-25T00:43:53.815Z,70.40
2019-05-25T00:46:22.677Z,70.40
2019-05-25T00:48:51.238Z,70.60
2019-05-25T00:51:19.878Z,70.70
2019-05-25T00:53:48.714Z,70.90
2019-05-25T00:56:17.494Z,71.10
2019-05-25T00:58:46.272Z,71.40
2019-05-25T01:01:14.916Z,71.70
2019-05-25T01:03:43.503Z,72.10
2019-05-25T01:06:12.198Z,72.40
2019-05-25T01:08:40.795Z,73.00
2019-05-25T01:11:09.387Z,73.80
2019-05-25T01:13:37.969Z,74.50
2019-05-25T01:16:06.720Z,75.10
2019-05-25T01:18:35.306Z,75.50
2019-05-25T01:21:03.963Z,75.90
2019-05-25T01:23:32.636Z,76.80
2019-05-25T01:26:01.290Z,77.60
2019-05-25T01:28:30.236Z,78.00
2019-05-25T01:30:58.827Z,78.20
2019-05-25T01:33:27.494Z,78.90
2019-05-25T01:35:56.568Z,80.10
2019-05-25T01:38:25.119Z,79.70
2019-05-25T01:40:53.723Z,80.00
2019-05-25T01:43:22.318Z,80.20
2019-05-25T01:45:50.875Z,80.40
2019-05-25T01:48:19.586Z,80.30
2019-05-25T01:50:48.157Z,80.80
2019-05-25T01:53:16.807Z,82.00
2019-05-25T01:55:45.374Z,83.10
2019-05-25T01:58:14.059Z,83.40
2019-05-25T02:00:42.716Z,86.10
2019-05-25T02:03:11.383Z,88.10
2019-05-25T02:05:40.120Z,88.90
2019-05-25T02:08:08.859Z,88.90
2019-05-25T02:10:37.429Z,89.00
2019-05-25T02:13:06.007Z,89.70
2019-05-25T02:15:34.702Z,90.10
2019-05-25T02:18:03.689Z,90.10
2019-05-25T02:20:32.238Z,90.20
2019-05-25T02:23:00.812Z,90.00
2019-05-25T02:25:29.389Z,88.90
2019-05-25T02:27:57.961Z,88.10
2019-05-25T02:30:28.747Z,86.70
2019-05-25T02:32:57.759Z,83.80
2019-05-25T02:35:28.310Z,81.60
2019-05-25T02:37:57.741Z,80.30
2019-05-25T02:40:26.890Z,79.30
2019-05-25T02:42:55.617Z,78.60
2019-05-25T02:45:24.469Z,77.60
2019-05-25T02:47:53.041Z,76.80
2019-05-25T02:50:22.047Z,76.90
2019-05-25T02:52:50.620Z,76.60
2019-05-25T02:55:32.926Z,76.40
2019-05-25T02:57:50.098Z,76.00
2019-05-25T03:00:21.754Z,75.90
2019-05-25T03:02:50.605Z,75.50
2019-05-25T03:05:19.409Z,75.70
2019-05-25T03:07:49.386Z,75.00
2019-05-25T03:10:18.606Z,74.40
2019-05-25T03:12:47.590Z,74.10
2019-05-25T03:15:16.995Z,73.60
2019-05-25T03:17:45.886Z,73.00
2019-05-25T03:20:15.646Z,72.20
2019-05-25T03:22:44.249Z,71.70
2019-05-25T03:25:13.399Z,71.00
2019-05-25T03:27:41.984Z,70.40
2019-05-25T03:30:11.319Z,69.70
2019-05-25T03:32:40.136Z,68.80
2019-05-25T03:35:09.126Z,68.60
2019-05-25T03:37:37.695Z,68.50
2019-05-25T03:40:08.306Z,68.40
2019-05-25T03:42:37.327Z,67.90
2019-05-25T03:45:07.423Z,67.90
2019-05-25T03:47:36.167Z,67.50
2019-05-25T03:50:05.698Z,67.00
2019-05-25T03:52:34.371Z,66.80
2019-05-25T03:55:03.506Z,67.00
2019-05-25T03:57:32.144Z,66.90
2019-05-25T04:00:00.757Z,66.70
2019-05-25T04:02:29.415Z,66.20
2019-05-25T04:04:58.014Z,65.80
2019-05-25T04:07:26.620Z,65.70
2019-05-25T04:09:55.611Z,65.60
2019-05-25T04:12:24.203Z,65.70
2019-05-25T04:14:52.869Z,65.10
2019-05-25T04:17:21.469Z,65.20
2019-05-25T04:19:50.098Z,63.80
2019-05-25T04:22:18.659Z,63.90
2019-05-25T04:24:47.256Z,64.30
2019-05-25T04:27:15.924Z,64.80
2019-05-25T04:29:46.439Z,65.80
2019-05-25T04:32:14.706Z,66.50
2019-05-25T04:34:43.674Z,66.90
2019-05-25T04:37:12.306Z,66.20
2019-05-25T04:39:40.883Z,66.10
2019-05-25T04:42:09.497Z,66.10
2019-05-25T04:44:38.085Z,65.80
2019-05-25T04:47:06.662Z,66.10
2019-05-25T04:49:35.294Z,66.00
2019-05-25T04:52:05.506Z,66.80
2019-05-25T04:54:34.178Z,67.10
2019-05-25T04:57:03.017Z,68.50
2019-05-25T04:59:31.879Z,74.80
2019-05-25T05:02:00.490Z,76.20
2019-05-25T05:04:29.091Z,75.90
2019-05-25T05:06:57.743Z,76.30
2019-05-25T05:09:26.324Z,76.30
2019-05-25T05:11:55.154Z,77.60
2019-05-25T05:14:23.766Z,78.10
2019-05-25T05:16:52.383Z,78.20
2019-05-25T05:19:21.048Z,78.50
2019-05-25T05:21:49.724Z,79.40
2019-05-25T05:24:18.569Z,79.40
2019-05-25T05:26:55.735Z,79.70
2019-05-25T05:29:17.347Z,79.40
2019-05-25T05:31:46.131Z,80.00
2019-05-25T05:34:14.837Z,80.40
2019-05-25T05:36:44.952Z,79.30
2019-05-25T05:39:14.557Z,79.20
2019-05-25T05:41:44.694Z,79.60
2019-05-25T05:44:16.032Z,79.00
2019-05-25T05:46:47.178Z,78.30
2019-05-25T05:49:17.267Z,77.70
2019-05-25T05:51:50.604Z,78.40
2019-05-25T05:54:21.209Z,78.10
2019-05-25T05:56:50.497Z,78.80
2019-05-25T05:59:19.281Z,78.50
2019-05-25T06:01:48.163Z,77.30
2019-05-25T06:04:16.859Z,76.70
2019-05-25T06:06:45.733Z,77.60
2019-05-25T06:09:14.535Z,78.70
2019-05-25T06:11:43.583Z,77.40
2019-05-25T06:14:12.200Z,77.10
2019-05-25T06:16:40.814Z,76.30
2019-05-25T06:19:09.547Z,76.30
2019-05-25T06:21:38.129Z,75.00
2019-05-25T06:24:09.094Z,75.10
2019-05-25T06:26:37.714Z,75.20
2019-05-25T06:29:06.463Z,75.20
2019-05-25T06:31:35.234Z,74.00
2019-05-25T06:34:04.400Z,74.20
2019-05-25T06:36:32.999Z,73.40
2019-05-25T06:39:01.664Z,73.10
2019-05-25T06:41:30.227Z,72.80
2019-05-25T06:43:59.175Z,72.90
2019-05-25T06:46:27.917Z,72.70
2019-05-25T06:48:56.596Z,72.90
2019-05-25T06:51:25.271Z,71.70
2019-05-25T06:53:53.939Z,71.50
2019-05-25T06:56:22.606Z,70.50
2019-05-25T06:58:51.258Z,69.90
2019-05-25T07:01:19.860Z,70.40
2019-05-25T07:03:48.433Z,70.70
2019-05-25T07:06:17.025Z,70.30
2019-05-25T07:08:45.670Z,69.40
2019-05-25T07:11:14.367Z,69.50
2019-05-25T07:13:42.943Z,68.00
2019-05-25T07:16:11.608Z,68.10
2019-05-25T07:18:40.271Z,68.30
2019-05-25T07:21:08.933Z,67.70
2019-05-25T07:23:37.499Z,66.90
2019-05-25T07:26:06.177Z,67.50
2019-05-25T07:28:35.212Z,65.80
2019-05-25T07:31:03.911Z,66.50
2019-05-25T07:33:32.626Z,65.80
2019-05-25T07:36:01.194Z,64.90
2019-05-25T07:38:29.777Z,64.60
2019-05-25T07:40:58.357Z,64.40
2019-05-25T07:43:26.943Z,63.70
2019-05-25T07:45:55.598Z,62.80
2019-05-25T07:48:25.035Z,62.70
2019-05-25T07:50:53.879Z,62.60
2019-05-25T07:53:22.683Z,63.70
2019-05-25T07:55:51.388Z,63.30
2019-05-25T07:58:20.095Z,63.00
2019-05-25T08:00:48.722Z,61.20
2019-05-25T08:03:17.323Z,60.60
2019-05-25T08:05:46.003Z,60.80
2019-05-25T08:08:14.667Z,60.00
2019-05-25T08:10:43.741Z,58.50
2019-05-25T08:13:12.382Z,58.30
2019-05-25T08:15:41.046Z,57.20
2019-05-25T08:18:09.644Z,57.40
2019-05-25T08:20:38.206Z,57.30
2019-05-25T08:23:06.893Z,57.70
2019-05-25T08:25:35.554Z,57.80
2019-05-25T08:28:04.282Z,58.40
2019-05-25T08:30:33.176Z,58.30
2019-05-25T08:33:01.916Z,58.70
2019-05-25T08:35:30.554Z,57.80
2019-05-25T08:37:59.162Z,57.90
2019-05-25T08:40:27.727Z,57.00
2019-05-25T08:42:56.459Z,55.60
2019-05-25T08:45:26.028Z,54.60
2019-05-25T08:47:57.256Z,54.90
2019-05-25T08:50:37.864Z,54.70
2019-05-25T08:52:55.895Z,54.80
2019-05-25T08:55:24.472Z,54.70
2019-05-25T08:57:53.115Z,54.80
2019-05-25T09:00:22.090Z,54.80
2019-05-25T09:02:50.694Z,54.90
2019-05-25T09:05:19.421Z,53.60
2019-05-25T09:07:48.061Z,54.40
2019-05-25T09:10:16.821Z,55.50
2019-05-25T09:12:45.556Z,57.50
2019-05-25T09:15:14.916Z,58.60
2019-05-25T09:17:43.547Z,58.60
2019-05-25T09:20:12.850Z,58.40
2019-05-25T09:22:41.467Z,58.10
2019-05-25T09:25:11.084Z,58.20
2019-05-25T09:27:39.963Z,56.60
2019-05-25T09:30:14.893Z,54.90
2019-05-25T09:32:43.626Z,54.30
2019-05-25T09:35:13.080Z,52.60
2019-05-25T09:37:41.821Z,52.60
2019-05-25T09:40:12.048Z,51.80
2019-05-25T09:42:41.451Z,52.00
2019-05-25T09:45:13.994Z,52.90
2019-05-25T09:47:41.733Z,52.20
2019-05-25T09:50:12.387Z,50.10
2019-05-25T09:52:40.987Z,47.80
2019-05-25T09:55:10.519Z,45.90
2019-05-25T09:57:41.609Z,45.40
2019-05-25T10:00:12.639Z,45.50
2019-05-25T10:02:42.159Z,46.70
2019-05-25T10:05:11.972Z,47.80
2019-05-25T10:07:40.726Z,48.90
2019-05-25T10:10:11.739Z,48.10
2019-05-25T10:12:40.451Z,46.00
2019-05-25T10:15:10.123Z,41.40
2019-05-25T10:17:38.751Z,37.40
2019-05-25T10:20:08.891Z,37.20
2019-05-25T10:22:37.783Z,37.10
2019-05-25T10:25:10.402Z,35.20
2019-05-25T10:27:39.017Z,32.70
2019-05-25T10:30:09.609Z,35.50
2019-05-25T10:32:38.269Z,38.10
2019-05-25T10:35:08.672Z,39.70
2019-05-25T10:37:37.322Z,38.80
2019-05-25T10:40:07.548Z,36.90
2019-05-25T10:42:36.300Z,34.40
2019-05-25T10:45:09.272Z,30.00
2019-05-25T10:47:38.079Z,29.40
2019-05-25T10:50:11.268Z,29.40
2019-05-25T10:52:40.031Z,29.80
2019-05-25T10:55:10.718Z,29.90
2019-05-25T10:57:39.474Z,31.70
2019-05-25T11:00:12.742Z,34.20
2019-05-25T11:02:41.457Z,31.60
2019-05-25T11:05:10.892Z,29.10
2019-05-25T11:07:39.538Z,26.80
2019-05-25T11:10:11.027Z,26.40
2019-05-25T11:12:39.966Z,27.00
2019-05-25T11:15:11.422Z,28.40
2019-05-25T11:17:40.075Z,28.60
2019-05-25T11:20:10.799Z,27.90
2019-05-25T11:22:39.523Z,29.60
2019-05-25T11:25:12.253Z,30.30
2019-05-25T11:27:40.979Z,29.40
2019-05-25T11:30:11.987Z,29.90
2019-05-25T11:32:40.713Z,29.40
2019-05-25T11:35:10.848Z,30.50
2019-05-25T11:37:39.643Z,31.10
2019-05-25T11:40:09.551Z,30.00
2019-05-25T11:42:38.266Z,28.90
2019-05-25T11:45:09.094Z,30.00
2019-05-25T11:47:37.933Z,32.10
2019-05-25T11:50:08.956Z,30.60
2019-05-25T11:52:37.677Z,30.60
2019-05-25T11:55:08.455Z,30.40
2019-05-25T11:57:37.127Z,31.30
2019-05-25T12:00:24.205Z,30.30
2019-05-25T12:02:42.233Z,29.40
2019-05-25T12:05:11.683Z,29.40
2019-05-25T12:07:43.917Z,29.30
2019-05-25T12:10:12.559Z,29.10
2019-05-25T12:12:41.459Z,29.80
2019-05-25T12:15:10.715Z,27.50
2019-05-25T12:17:39.425Z,26.50
2019-05-25T12:20:08.811Z,27.60
2019-05-25T12:22:37.824Z,27.30
2019-05-25T12:25:07.354Z,28.40
2019-05-25T12:27:35.902Z,28.40
2019-05-25T12:30:09.391Z,29.00
2019-05-25T12:32:38.094Z,30.80
2019-05-25T12:35:08.194Z,31.50
2019-05-25T12:37:36.961Z,32.90
2019-05-25T12:40:07.054Z,33.20
2019-05-25T12:42:35.857Z,32.80
2019-05-25T12:45:06.590Z,33.10
2019-05-25T12:47:35.429Z,33.20
2019-05-25T12:50:06.037Z,33.60
2019-05-25T12:52:34.743Z,31.10
2019-05-25T12:55:03.931Z,29.90
2019-05-25T12:57:32.504Z,29.40
2019-05-25T13:00:14.240Z,29.50
2019-05-25T13:02:31.829Z,29.70
2019-05-25T13:05:00.633Z,31.40
2019-05-25T13:07:29.450Z,33.10
2019-05-25T13:09:58.060Z,34.20
2019-05-25T13:12:26.812Z,34.90
2019-05-25T13:14:55.498Z,35.70
2019-05-25T13:17:24.259Z,36.00
2019-05-25T13:19:53.221Z,36.30
2019-05-25T13:22:30.250Z,37.10
2019-05-25T13:24:59.074Z,36.90
2019-05-25T13:27:27.833Z,36.00
2019-05-25T13:29:56.843Z,36.30
2019-05-25T13:32:25.436Z,36.70
2019-05-25T13:34:54.196Z,36.80
2019-05-25T13:37:22.912Z,36.90
2019-05-25T13:39:51.600Z,37.00
2019-05-25T13:42:20.200Z,37.10
2019-05-25T13:44:49.012Z,38.30
2019-05-25T13:47:17.685Z,36.20
2019-05-25T13:49:46.278Z,36.00
2019-05-25T13:52:14.874Z,35.50
2019-05-25T13:54:43.508Z,35.20
2019-05-25T13:57:12.110Z,33.60
2019-05-25T13:59:40.746Z,34.20
2019-05-25T14:02:09.314Z,35.80
2019-05-25T14:04:38.028Z,37.20
2019-05-25T14:07:06.647Z,36.60
2019-05-25T14:09:35.346Z,32.10
2019-05-25T14:12:04.037Z,29.90
2019-05-25T14:14:32.713Z,31.00
2019-05-25T14:17:01.317Z,32.80
2019-05-25T14:19:29.950Z,34.50
2019-05-25T14:21:58.479Z,35.60
2019-05-25T14:24:27.170Z,37.10
2019-05-25T14:26:55.945Z,37.90
2019-05-25T14:29:26.297Z,38.50
2019-05-25T14:31:54.826Z,39.40
2019-05-25T14:34:23.454Z,40.50
2019-05-25T14:36:52.094Z,41.40
2019-05-25T14:39:20.798Z,41.60
2019-05-25T14:41:49.555Z,42.10
2019-05-25T14:44:18.221Z,42.70
2019-05-25T14:46:46.887Z,42.70
2019-05-25T14:49:15.946Z,41.90
2019-05-25T14:51:49.039Z,41.80
2019-05-25T14:54:17.678Z,42.00
2019-05-25T14:56:46.274Z,42.50
2019-05-25T14:59:14.968Z,42.20
2019-05-25T15:01:43.674Z,42.20
2019-05-25T15:04:12.374Z,41.90
2019-05-25T15:06:41.149Z,42.30
2019-05-25T15:09:09.743Z,42.70
2019-05-25T15:11:38.442Z,43.40
2019-05-25T15:14:07.112Z,44.60
2019-05-25T15:16:35.736Z,45.20
2019-05-25T15:19:04.506Z,45.40
2019-05-25T15:21:33.249Z,45.20
2019-05-25T15:24:01.959Z,45.60
2019-05-25T15:26:30.503Z,45.50
2019-05-25T15:28:59.180Z,45.60
2019-05-25T15:31:27.861Z,45.90
2019-05-25T15:33:56.471Z,46.50
2019-05-25T15:36:25.060Z,45.50
2019-05-25T15:38:53.667Z,45.70
2019-05-25T15:41:22.370Z,45.90
2019-05-25T15:43:51.048Z,46.60
2019-05-25T15:46:19.782Z,47.20
2019-05-25T15:48:48.435Z,46.80
2019-05-25T15:51:17.017Z,47.20
2019-05-25T15:53:45.653Z,47.80
2019-05-25T15:56:14.254Z,46.70
2019-05-25T15:58:43.028Z,46.90
2019-05-25T16:01:11.830Z,47.60
2019-05-25T16:03:40.418Z,47.70
2019-05-25T16:06:09.108Z,47.50
2019-05-25T16:08:37.934Z,47.60
2019-05-25T16:11:06.629Z,48.10
2019-05-25T16:13:35.363Z,48.40
2019-05-25T16:16:04.279Z,48.60
2019-05-25T16:18:32.885Z,48.40
2019-05-25T16:21:01.592Z,48.90
2019-05-25T16:23:30.212Z,49.30
2019-05-25T16:25:58.826Z,48.70
2019-05-25T16:28:27.426Z,48.60
2019-05-25T16:30:55.994Z,49.00
2019-05-25T16:33:24.675Z,49.30
2019-05-25T16:35:57.245Z,49.90
2019-05-25T16:38:23.624Z,50.50
2019-05-25T16:40:52.403Z,50.80
2019-05-25T16:43:21.026Z,51.30
2019-05-25T16:45:49.735Z,52.40
2019-05-25T16:48:18.701Z,52.70
2019-05-25T16:50:47.302Z,52.70
2019-05-25T16:53:16.019Z,52.70
2019-05-25T16:55:44.644Z,52.60
2019-05-25T16:58:13.279Z,52.40
2019-05-25T17:00:41.950Z,52.20
2019-05-25T17:03:26.536Z,52.50
2019-05-25T17:05:41.046Z,52.40
2019-05-25T17:08:09.717Z,52.60
2019-05-25T17:10:38.577Z,52.90
2019-05-25T17:13:07.287Z,53.40
2019-05-25T17:15:36.006Z,53.60
2019-05-25T17:18:05.248Z,53.90
2019-05-25T17:20:34.191Z,54.00
2019-05-25T17:23:02.964Z,54.00
2019-05-25T17:25:31.917Z,54.10
2019-05-25T17:28:00.438Z,54.20
2019-05-25T17:30:46.471Z,54.80
2019-05-25T17:33:15.725Z,56.20
2019-05-25T17:35:44.581Z,57.30
2019-05-25T17:38:13.350Z,57.80
2019-05-25T17:40:42.029Z,58.00
2019-05-25T17:43:10.703Z,58.30
2019-05-25T17:45:39.465Z,58.60
2019-05-25T17:48:08.185Z,59.40
2019-05-25T17:50:37.123Z,59.90
2019-05-25T17:53:05.818Z,60.10
2019-05-25T17:55:34.466Z,60.40
2019-05-25T17:58:03.139Z,60.90
2019-05-25T18:00:46.909Z,61.10
2019-05-25T18:03:15.613Z,61.20
2019-05-25T18:05:44.612Z,62.00
2019-05-25T18:08:13.317Z,62.30
2019-05-25T18:10:52.622Z,62.20
2019-05-25T18:13:12.545Z,62.60
2019-05-25T18:15:41.518Z,62.60
2019-05-25T18:18:10.259Z,62.50
2019-05-25T18:20:39.030Z,62.30
2019-05-25T18:23:07.767Z,61.80
2019-05-25T18:25:36.595Z,61.50
2019-05-25T18:28:06.314Z,61.10
2019-05-25T18:30:34.965Z,61.10
2019-05-25T18:33:04.005Z,60.70
2019-05-25T18:35:33.043Z,60.80
2019-05-25T18:38:01.636Z,61.10
2019-05-25T18:40:30.368Z,61.30
2019-05-25T18:42:59.054Z,61.60
2019-05-25T18:45:27.776Z,61.70
2019-05-25T18:47:56.302Z,61.70
2019-05-25T18:50:26.350Z,61.70
2019-05-25T18:52:55.022Z,62.10
2019-05-25T18:55:23.749Z,62.40
2019-05-25T18:57:52.447Z,63.00
2019-05-25T19:00:21.991Z,63.30
2019-05-25T19:02:50.797Z,63.30
2019-05-25T19:05:19.929Z,63.60
2019-05-25T19:07:48.634Z,63.70
2019-05-25T19:10:17.951Z,63.70
2019-05-25T19:12:46.513Z,63.70
2019-05-25T19:15:16.838Z,63.40
2019-05-25T19:17:45.552Z,63.00
2019-05-25T19:20:20.703Z,62.70
2019-05-25T19:22:45.141Z,62.90
2019-05-25T19:25:15.628Z,63.00
2019-05-25T19:27:44.242Z,62.80
2019-05-25T19:30:13.587Z,62.90
2019-05-25T19:32:42.284Z,62.90
2019-05-25T19:35:11.609Z,63.40
2019-05-25T19:37:42.389Z,63.90
2019-05-25T19:40:11.836Z,64.10
2019-05-25T19:42:40.406Z,64.70
2019-05-25T19:45:10.253Z,64.90
2019-05-25T19:47:38.883Z,65.10
2019-05-25T19:50:10.692Z,65.40
2019-05-25T19:52:39.351Z,65.30
2019-05-25T19:55:08.393Z,65.10
2019-05-25T19:57:37.134Z,65.00
2019-05-25T20:00:07.274Z,65.10
2019-05-25T20:02:36.047Z,65.20
2019-05-25T20:05:16.291Z,65.00
2019-05-25T20:07:39.182Z,64.50
2019-05-25T20:10:09.839Z,63.80
2019-05-25T20:12:38.527Z,63.70
2019-05-25T20:15:08.903Z,63.30
2019-05-25T20:17:37.674Z,63.00
2019-05-25T20:20:07.527Z,62.60
2019-05-25T20:22:36.197Z,62.50
2019-05-25T20:25:06.329Z,62.40
2019-05-25T20:27:35.070Z,62.40
2019-05-25T20:30:08.052Z,62.50
2019-05-25T20:32:36.703Z,62.60
2019-05-25T20:35:07.434Z,62.70
2019-05-25T20:37:36.155Z,62.80
2019-05-25T20:40:07.613Z,63.50
2019-05-25T20:42:36.801Z,62.80
2019-05-25T20:45:09.346Z,62.60
2019-05-25T20:47:38.148Z,62.80
2019-05-25T20:50:08.357Z,63.00
2019-05-25T20:52:37.088Z,63.40
2019-05-25T20:55:07.948Z,63.90
2019-05-25T20:57:36.496Z,64.10
2019-05-25T21:00:08.826Z,64.50
2019-05-25T21:02:37.565Z,65.10
2019-05-25T21:05:07.097Z,65.50
2019-05-25T21:07:35.726Z,65.90
2019-05-25T21:10:06.922Z,66.40
2019-05-25T21:12:35.595Z,67.20
2019-05-25T21:15:06.829Z,67.50
2019-05-25T21:17:35.629Z,67.90
2019-05-25T21:20:06.326Z,68.10
2019-05-25T21:22:34.907Z,68.20
2019-05-25T21:25:06.254Z,68.40
2019-05-25T21:27:35.502Z,68.50
2019-05-25T21:30:05.324Z,68.70
2019-05-25T21:32:33.979Z,69.10
2019-05-25T21:35:02.650Z,69.50
2019-05-25T21:37:31.417Z,69.90
2019-05-25T21:39:59.979Z,70.60
2019-05-25T21:42:28.653Z,70.90
2019-05-25T21:44:57.231Z,71.10
2019-05-25T21:47:25.803Z,71.30
2019-05-25T21:49:54.429Z,72.00
2019-05-25T21:52:23.223Z,72.30
2019-05-25T21:54:51.852Z,72.70
2019-05-25T21:57:20.482Z,73.30
2019-05-25T21:59:50.921Z,73.40
2019-05-25T22:02:19.597Z,73.70
2019-05-25T22:04:48.316Z,74.30
2019-05-25T22:07:16.924Z,74.40
2019-05-25T22:09:45.559Z,75.00
2019-05-25T22:12:14.269Z,75.20
2019-05-25T22:14:42.935Z,75.70
2019-05-25T22:17:12.038Z,76.20
2019-05-25T22:19:40.602Z,76.10
2019-05-25T22:22:09.418Z,76.10
2019-05-25T22:24:38.006Z,76.30
2019-05-25T22:27:06.631Z,76.60
2019-05-25T22:29:35.258Z,76.60
2019-05-25T22:32:04.010Z,77.10
2019-05-25T22:34:32.591Z,77.10
2019-05-25T22:37:01.331Z,77.80
2019-05-25T22:39:30.036Z,78.50
2019-05-25T22:41:58.579Z,79.00
2019-05-25T22:44:27.516Z,79.40
2019-05-25T22:46:56.290Z,79.60
2019-05-25T22:49:24.931Z,80.00
2019-05-25T22:51:53.546Z,80.40
2019-05-25T22:54:22.171Z,80.80
2019-05-25T22:56:50.775Z,81.00
2019-05-25T22:59:19.493Z,81.00
2019-05-25T23:01:48.170Z,81.10
2019-05-25T23:04:16.767Z,81.30
2019-05-25T23:06:57.133Z,81.60
2019-05-25T23:09:15.552Z,81.80
2019-05-25T23:11:44.154Z,82.00
2019-05-25T23:14:12.764Z,82.10
2019-05-25T23:16:41.398Z,82.60
2019-05-25T23:19:10.333Z,82.60
2019-05-25T23:21:38.927Z,82.70
2019-05-25T23:24:07.668Z,82.70
2019-05-25T23:26:36.327Z,82.50
2019-05-25T23:29:05.130Z,83.10
2019-05-25T23:31:33.867Z,83.30
2019-05-25T23:34:02.631Z,83.30
2019-05-25T23:36:31.695Z,83.60
2019-05-25T23:39:00.368Z,83.70
2019-05-25T23:41:28.997Z,84.20
2019-05-25T23:43:59.754Z,84.50
2019-05-25T23:46:27.954Z,84.70
2019-05-25T23:48:56.556Z,84.70
2019-05-25T23:51:25.156Z,84.60
2019-05-25T23:53:53.790Z,84.60
2019-05-25T23:56:22.402Z,84.70
2019-05-25T23:58:50.992Z,84.90
